Time;durP1;ratioP1;P1;durP2;ratioP2;P2;SDS_P1;SDS_P2;PMS_P1;PMS_P2;Temp;Humidity;BMP_temperature;BMP_pressure;BME280_temperature;BME280_humidity;BME280_pressure;Samples;Min_cycle;Max_cycle;Signal;HPM_P1;HPM_P2
2021/12/11 00:00:33;;;;;;;45.13;21.30;;;1.90;99.90;;;;;;5118622;28;20521;-67
2021/12/11 00:03:04;;;;;;;42.43;20.97;;;1.70;99.90;;;;;;5118172;28;20448;-68
2021/12/11 00:05:32;;;;;;;53.50;24.00;;;1.70;99.90;;;;;;5118538;28;20461;-66
2021/12/11 00:08:00;;;;;;;40.97;21.10;;;1.80;99.90;;;;;;5118199;28;20532;-68
2021/12/11 00:10:30;;;;;;;52.33;23.17;;;1.70;99.90;;;;;;5118542;28;20551;-67
2021/12/11 00:13:04;;;;;;;45.83;23.27;;;1.70;99.90;;;;;;5118294;28;20456;-67
2021/12/11 00:15:37;;;;;;;49.87;23.63;;;1.70;99.90;;;;;;5118196;28;20443;-67
2021/12/11 00:18:07;;;;;;;45.27;23.13;;;1.80;99.90;;;;;;5117903;28;20444;-67
2021/12/11 00:20:42;;;;;;;51.87;26.00;;;1.80;99.90;;;;;;5117529;28;20460;-67
2021/12/11 00:23:09;;;;;;;49.30;23.87;;;1.80;99.90;;;;;;5117459;28;20916;-67
2021/12/11 00:25:50;;;;;;;48.30;21.70;;;1.70;99.90;;;;;;5117498;28;20510;-67
2021/12/11 00:28:17;;;;;;;44.70;24.30;;;1.70;99.90;;;;;;5117493;28;20872;-67
2021/12/11 00:30:46;;;;;;;53.20;23.70;;;1.80;99.90;;;;;;5117572;28;20460;-67
2021/12/11 00:33:18;;;;;;;52.77;26.20;;;1.80;99.90;;;;;;5117469;28;20483;-68
2021/12/11 00:35:47;;;;;;;48.93;23.17;;;1.80;99.90;;;;;;5117620;28;20444;-68
2021/12/11 00:38:18;;;;;;;47.77;23.50;;;1.80;99.90;;;;;;5117404;28;20453;-68
2021/12/11 00:40:48;;;;;;;45.20;22.60;;;1.90;99.90;;;;;;5117632;28;20440;-67
2021/12/11 00:43:20;;;;;;;44.27;23.37;;;2.00;99.90;;;;;;5117028;28;20480;-67
2021/12/11 00:45:50;;;;;;;41.17;21.80;;;2.00;99.90;;;;;;5117399;28;20461;-67
2021/12/11 00:48:21;;;;;;;50.83;22.73;;;2.10;99.90;;;;;;5116883;28;20452;-67
2021/12/11 00:50:52;;;;;;;51.40;25.27;;;2.10;99.90;;;;;;5116905;28;20436;-67
2021/12/11 00:53:22;;;;;;;37.57;21.20;;;2.10;99.90;;;;;;5117075;28;20708;-67
2021/12/11 00:55:53;;;;;;;46.77;22.67;;;2.10;99.90;;;;;;5117648;28;20448;-67
2021/12/11 00:58:24;;;;;;;45.40;21.70;;;2.20;99.90;;;;;;5117014;28;20437;-67
2021/12/11 01:00:55;;;;;;;46.87;23.47;;;2.10;99.90;;;;;;5117014;28;20441;-67
2021/12/11 01:03:27;;;;;;;42.67;24.30;;;2.10;99.90;;;;;;5116628;27;20444;-67
2021/12/11 01:05:57;;;;;;;42.97;22.60;;;2.10;99.90;;;;;;5117354;28;20468;-67
2021/12/11 01:08:31;;;;;;;37.27;21.10;;;2.20;99.90;;;;;;5117049;27;20468;-66
2021/12/11 01:11:07;;;;;;;38.43;21.23;;;2.20;99.90;;;;;;5116300;28;20436;-67
2021/12/11 01:13:39;;;;;;;40.30;21.93;;;2.20;99.90;;;;;;5117206;28;20758;-67
2021/12/11 01:16:12;;;;;;;33.57;19.57;;;2.20;99.90;;;;;;5116499;28;20443;-68
2021/12/11 01:18:41;;;;;;;40.47;21.67;;;2.20;99.90;;;;;;5116683;28;20915;-67
2021/12/11 01:21:28;;;;;;;45.23;22.00;;;2.20;99.90;;;;;;5116590;28;20463;-67
2021/12/11 01:26:45;;;;;;;38.20;20.97;;;2.30;99.90;;;;;;5112328;28;20933;-67
2021/12/11 01:29:12;;;;;;;40.33;21.37;;;2.30;99.90;;;;;;5116340;28;20464;-67
2021/12/11 01:31:40;;;;;;;43.17;22.60;;;2.20;99.90;;;;;;5116281;28;20456;-68
2021/12/11 01:34:07;;;;;;;44.30;21.50;;;2.10;99.90;;;;;;5116594;28;20453;-67
2021/12/11 01:36:35;;;;;;;39.70;22.07;;;2.10;99.90;;;;;;5116245;28;20551;-67
2021/12/11 01:39:07;;;;;;;48.40;23.37;;;2.10;99.90;;;;;;5116222;28;20884;-67
2021/12/11 01:41:35;;;;;;;42.03;21.60;;;2.10;99.90;;;;;;5116253;28;20456;-67
2021/12/11 01:44:08;;;;;;;35.47;20.40;;;2.10;99.90;;;;;;5115953;28;20481;-67
2021/12/11 01:46:35;;;;;;;34.97;21.23;;;2.10;99.90;;;;;;5115930;28;20491;-68
2021/12/11 01:49:09;;;;;;;39.63;20.70;;;2.20;99.90;;;;;;5115927;28;20452;-68
2021/12/11 01:51:43;;;;;;;39.67;20.10;;;2.20;99.90;;;;;;5116439;28;20441;-68
2021/12/11 01:54:17;;;;;;;38.57;22.60;;;2.20;99.90;;;;;;5115923;28;20428;-68
2021/12/11 01:56:47;;;;;;;35.10;21.17;;;2.20;99.90;;;;;;5116246;28;20452;-68
2021/12/11 01:59:23;;;;;;;39.60;21.67;;;2.20;99.90;;;;;;5116011;28;20444;-67
2021/12/11 02:01:54;;;;;;;41.17;21.90;;;2.20;99.90;;;;;;5117053;28;20764;-68
2021/12/11 02:04:26;;;;;;;41.80;20.73;;;2.20;99.90;;;;;;5115111;28;20439;-68
2021/12/11 02:06:55;;;;;;;39.83;22.50;;;2.20;99.90;;;;;;5116344;28;20507;-68
2021/12/11 02:09:24;;;;;;;41.20;21.83;;;2.20;99.90;;;;;;5115819;28;20924;-67
2021/12/11 02:12:00;;;;;;;43.03;22.47;;;2.30;99.90;;;;;;5115420;28;20943;-67
2021/12/11 02:14:35;;;;;;;43.73;22.83;;;2.30;99.90;;;;;;5115279;28;20445;-68
2021/12/11 02:17:02;;;;;;;43.23;22.30;;;2.10;99.90;;;;;;5116502;28;20892;-67
2021/12/11 02:19:33;;;;;;;38.67;20.80;;;2.20;99.90;;;;;;5115390;28;20912;-67
2021/12/11 02:22:12;;;;;;;32.40;19.77;;;2.30;99.90;;;;;;5115043;28;20448;-67
2021/12/11 02:24:43;;;;;;;41.27;22.30;;;2.20;99.90;;;;;;5115446;28;20440;-67
2021/12/11 02:27:15;;;;;;;40.07;23.17;;;2.30;99.90;;;;;;5114859;28;20462;-67
2021/12/11 02:29:46;;;;;;;44.90;22.07;;;2.30;99.90;;;;;;5115877;28;20763;-67
2021/12/11 02:32:18;;;;;;;40.00;21.80;;;2.30;99.90;;;;;;5115286;28;20897;-67
2021/12/11 02:34:48;;;;;;;45.30;22.70;;;2.40;99.90;;;;;;5115105;28;20880;-67
2021/12/11 02:37:28;;;;;;;37.53;21.60;;;2.40;99.90;;;;;;5115293;28;20452;-67
2021/12/11 02:39:58;;;;;;;39.73;23.27;;;2.40;99.90;;;;;;5115463;28;20456;-67
2021/12/11 02:42:31;;;;;;;39.23;22.43;;;2.30;99.90;;;;;;5115196;28;20437;-67
2021/12/11 02:45:04;;;;;;;42.97;23.70;;;2.30;99.90;;;;;;5114854;28;20484;-67
2021/12/11 02:47:35;;;;;;;39.20;21.97;;;2.10;99.90;;;;;;5115136;28;20932;-67
2021/12/11 02:50:06;;;;;;;45.80;23.20;;;2.00;99.90;;;;;;5114933;28;20772;-67
2021/12/11 02:52:40;;;;;;;42.03;22.50;;;2.00;99.90;;;;;;5115251;28;20531;-67
2021/12/11 02:55:12;;;;;;;37.27;20.97;;;2.00;99.90;;;;;;5114909;28;20429;-67
2021/12/11 02:57:45;;;;;;;39.03;23.20;;;2.00;99.90;;;;;;5114928;28;20443;-68
2021/12/11 03:00:17;;;;;;;45.77;22.87;;;2.00;99.90;;;;;;5115246;28;20504;-68
2021/12/11 03:02:48;;;;;;;46.90;23.33;;;2.00;99.90;;;;;;5115136;28;20451;-68
2021/12/11 03:05:18;;;;;;;38.13;22.00;;;1.90;99.90;;;;;;5114496;28;20948;-68
2021/12/11 03:07:51;;;;;;;40.23;21.63;;;1.90;99.90;;;;;;5114941;28;20499;-67
2021/12/11 03:10:25;;;;;;;41.43;22.63;;;2.00;99.90;;;;;;5114817;28;20445;-67
2021/12/11 03:12:54;;;;;;;48.30;25.37;;;2.00;99.90;;;;;;5114315;28;20448;-68
2021/12/11 03:15:21;;;;;;;43.93;23.20;;;2.10;99.90;;;;;;5114627;28;20908;-67
2021/12/11 03:17:48;;;;;;;43.80;23.27;;;2.00;99.90;;;;;;5118420;28;20452;-68
2021/12/11 03:20:18;;;;;;;43.87;24.47;;;2.00;99.90;;;;;;5118241;28;20467;-67
2021/12/11 03:22:47;;;;;;;46.40;23.70;;;1.90;99.90;;;;;;5118797;28;20908;-67
2021/12/11 03:25:21;;;;;;;43.60;24.80;;;1.90;99.90;;;;;;5118714;28;20792;-67
2021/12/11 03:27:49;;;;;;;50.80;25.87;;;1.90;99.90;;;;;;5118765;28;20770;-67
2021/12/11 03:30:21;;;;;;;46.60;23.80;;;1.90;99.90;;;;;;5118227;28;20938;-67
2021/12/11 03:32:48;;;;;;;45.60;24.90;;;2.00;99.90;;;;;;5118761;28;20447;-67
2021/12/11 03:35:15;;;;;;;42.67;23.87;;;2.00;99.90;;;;;;5118809;28;20470;-67
2021/12/11 03:37:44;;;;;;;42.00;22.37;;;2.00;99.90;;;;;;5118342;28;20765;-67
2021/12/11 03:40:15;;;;;;;40.17;23.00;;;2.00;99.90;;;;;;5118323;28;20464;-67
2021/12/11 03:42:45;;;;;;;49.37;25.83;;;1.90;99.90;;;;;;5118105;28;20815;-67
2021/12/11 03:45:16;;;;;;;48.40;26.07;;;1.90;99.90;;;;;;5118500;28;20444;-68
2021/12/11 03:47:47;;;;;;;55.90;28.30;;;1.80;99.90;;;;;;5118432;28;20464;-68
2021/12/11 03:50:16;;;;;;;50.50;27.00;;;1.80;99.90;;;;;;5118120;28;20517;-67
2021/12/11 03:52:45;;;;;;;57.00;27.43;;;1.90;99.90;;;;;;5118174;28;20471;-67
2021/12/11 03:55:16;;;;;;;54.03;27.23;;;1.90;99.90;;;;;;5118011;28;20460;-67
2021/12/11 03:57:44;;;;;;;49.63;25.27;;;1.80;99.90;;;;;;5117696;28;20463;-68
2021/12/11 04:00:15;;;;;;;50.00;24.63;;;1.90;99.90;;;;;;5117992;28;20467;-67
2021/12/11 04:02:44;;;;;;;55.70;25.77;;;1.80;99.90;;;;;;5117657;28;20433;-67
2021/12/11 04:05:11;;;;;;;48.90;23.80;;;1.70;99.90;;;;;;5117749;28;20492;-67
2021/12/11 04:07:42;;;;;;;55.23;26.70;;;1.70;99.90;;;;;;5117555;28;20486;-67
2021/12/11 04:10:12;;;;;;;47.43;24.87;;;1.60;99.90;;;;;;5117612;28;20901;-68
2021/12/11 04:12:40;;;;;;;37.87;19.40;;;1.70;99.90;;;;;;5117461;28;20469;-67
2021/12/11 04:15:10;;;;;;;46.67;22.07;;;1.70;99.90;;;;;;5118042;28;20448;-67
2021/12/11 04:17:38;;;;;;;45.20;21.77;;;1.80;99.90;;;;;;5117983;28;20448;-67
2021/12/11 04:20:10;;;;;;;46.17;21.57;;;1.80;99.90;;;;;;5117970;28;20452;-71
2021/12/11 04:22:37;;;;;;;41.50;21.43;;;1.80;99.90;;;;;;5118281;28;20456;-68
2021/12/11 04:25:05;;;;;;;41.63;21.40;;;1.70;99.90;;;;;;5118434;28;20995;-67
2021/12/11 04:27:32;;;;;;;43.37;21.63;;;1.60;99.90;;;;;;5117955;28;20484;-67
2021/12/11 04:30:03;;;;;;;41.27;21.80;;;1.60;99.90;;;;;;5117848;27;20452;-67
2021/12/11 04:32:32;;;;;;;51.70;23.87;;;1.60;99.90;;;;;;5118945;28;20437;-67
2021/12/11 04:35:00;;;;;;;47.60;22.73;;;1.60;99.90;;;;;;5118276;28;20465;-68
2021/12/11 04:37:30;;;;;;;50.40;24.50;;;1.70;99.90;;;;;;5120451;28;20524;-68
2021/12/11 04:40:02;;;;;;;47.60;24.23;;;1.70;99.90;;;;;;5124501;28;20546;-67
2021/12/11 04:42:40;;;;;;;48.70;21.57;;;1.70;99.90;;;;;;5119067;28;20481;-67
2021/12/11 04:45:16;;;;;;;46.87;22.43;;;1.60;99.90;;;;;;5117682;28;20523;-67
2021/12/11 04:47:48;;;;;;;57.07;25.20;;;1.60;99.90;;;;;;5117178;28;20468;-67
2021/12/11 04:50:25;;;;;;;52.03;23.23;;;1.60;99.90;;;;;;5116948;28;20437;-67
2021/12/11 04:52:54;;;;;;;47.00;21.60;;;1.70;99.90;;;;;;5116919;28;20444;-67
2021/12/11 04:55:36;;;;;;;53.80;24.10;;;1.70;99.90;;;;;;5116730;28;20456;-67
2021/12/11 04:58:23;;;;;;;41.30;22.93;;;1.80;99.90;;;;;;5116956;28;20437;-67
2021/12/11 05:01:05;;;;;;;46.70;24.13;;;1.80;99.90;;;;;;5116336;28;20885;-67
2021/12/11 05:04:11;;;;;;;53.77;23.17;;;1.80;99.90;;;;;;5116960;28;20825;-67
2021/12/11 05:06:48;;;;;;;53.60;24.20;;;1.80;99.90;;;;;;5116888;28;20437;-67
2021/12/11 05:09:23;;;;;;;52.37;22.70;;;1.70;99.90;;;;;;5117014;28;20468;-67
2021/12/11 05:12:05;;;;;;;59.50;23.50;;;1.70;99.90;;;;;;5117145;27;20491;-67
2021/12/11 05:14:32;;;;;;;53.00;24.70;;;1.50;99.90;;;;;;5116775;28;20448;-67
2021/12/11 05:17:01;;;;;;;57.60;24.37;;;1.60;99.90;;;;;;5116635;28;20460;-67
2021/12/11 05:19:27;;;;;;;58.33;24.60;;;1.50;99.90;;;;;;5116819;28;20459;-67
2021/12/11 05:21:54;;;;;;;59.00;24.90;;;1.50;99.90;;;;;;5116569;28;20460;-67
2021/12/11 05:24:21;;;;;;;50.43;22.10;;;1.50;99.90;;;;;;5116206;28;20544;-67
2021/12/11 05:26:48;;;;;;;56.90;24.30;;;1.60;99.90;;;;;;5116432;28;20456;-67
2021/12/11 05:29:14;;;;;;;58.93;24.50;;;1.60;99.90;;;;;;5116606;28;20470;-67
2021/12/11 05:31:41;;;;;;;57.43;22.47;;;1.70;99.90;;;;;;5116019;28;20460;-67
2021/12/11 05:34:10;;;;;;;57.40;24.03;;;1.80;99.90;;;;;;5116316;28;20472;-67
2021/12/11 05:36:37;;;;;;;50.07;22.30;;;1.80;99.90;;;;;;5116440;28;20471;-67
2021/12/11 05:39:08;;;;;;;50.53;20.97;;;1.80;99.90;;;;;;5115469;28;20474;-67
2021/12/11 05:41:36;;;;;;;53.93;23.40;;;1.80;99.90;;;;;;5116189;28;20436;-67
2021/12/11 05:44:03;;;;;;;49.07;23.27;;;1.90;99.90;;;;;;5116697;28;20476;-67
2021/12/11 05:46:30;;;;;;;49.33;22.20;;;1.90;99.90;;;;;;5116507;28;20464;-67
2021/12/11 05:48:57;;;;;;;54.53;23.10;;;1.90;99.90;;;;;;5115899;28;20805;-67
2021/12/11 05:51:26;;;;;;;59.70;24.23;;;2.00;99.90;;;;;;5115815;28;20457;-67
2021/12/11 05:53:58;;;;;;;53.47;23.20;;;1.90;99.90;;;;;;5115271;28;20551;-67
2021/12/11 05:56:26;;;;;;;52.63;24.27;;;1.80;99.90;;;;;;5115613;28;20467;-67
2021/12/11 05:58:59;;;;;;;59.90;24.40;;;1.90;99.90;;;;;;5115706;28;20449;-67
2021/12/11 06:01:31;;;;;;;57.47;23.40;;;1.90;99.90;;;;;;5115715;28;20467;-67
2021/12/11 06:03:59;;;;;;;58.30;26.30;;;1.80;99.90;;;;;;5115274;28;20437;-67
2021/12/11 06:06:28;;;;;;;64.50;24.93;;;1.80;99.90;;;;;;5115841;28;20915;-67
2021/12/11 06:08:54;;;;;;;60.67;24.20;;;1.80;99.90;;;;;;5115039;28;20477;-67
2021/12/11 06:11:21;;;;;;;59.23;26.40;;;1.90;99.90;;;;;;5115112;28;20453;-66
2021/12/11 06:13:48;;;;;;;57.97;24.80;;;2.00;99.90;;;;;;5115544;28;20456;-66
2021/12/11 06:16:16;;;;;;;61.10;23.63;;;2.00;99.90;;;;;;5115165;28;20563;-66
2021/12/11 06:18:44;;;;;;;44.20;22.57;;;2.00;99.90;;;;;;5115384;28;20740;-67
2021/12/11 06:21:11;;;;;;;54.43;25.50;;;2.10;99.90;;;;;;5115278;28;20472;-67
2021/12/11 06:23:40;;;;;;;50.00;23.00;;;2.10;99.90;;;;;;5114981;28;20571;-67
2021/12/11 06:26:06;;;;;;;51.47;22.00;;;2.20;99.90;;;;;;5115295;28;20452;-66
2021/12/11 06:28:34;;;;;;;56.90;24.20;;;2.20;99.90;;;;;;5114939;28;20481;-67
2021/12/11 06:31:03;;;;;;;50.40;24.87;;;2.20;99.90;;;;;;5114980;28;20467;-67
2021/12/11 06:33:31;;;;;;;48.20;24.27;;;2.10;99.90;;;;;;5115309;28;20464;-66
2021/12/11 06:36:01;;;;;;;51.80;22.60;;;2.10;99.90;;;;;;5114827;28;20457;-67
2021/12/11 06:38:31;;;;;;;59.03;23.87;;;2.10;99.90;;;;;;5115155;28;20452;-67
2021/12/11 06:40:59;;;;;;;49.13;22.93;;;2.10;99.90;;;;;;5114972;28;20460;-67
2021/12/11 06:43:26;;;;;;;51.00;23.57;;;2.00;99.90;;;;;;5114697;28;20476;-67
2021/12/11 06:45:54;;;;;;;51.63;23.10;;;2.00;99.90;;;;;;5115249;28;20456;-68
2021/12/11 06:48:21;;;;;;;48.00;22.37;;;1.90;99.90;;;;;;5115043;28;20794;-67
2021/12/11 06:50:49;;;;;;;45.60;21.07;;;2.00;99.90;;;;;;5119538;28;20471;-67
2021/12/11 06:53:21;;;;;;;46.50;22.40;;;2.00;99.90;;;;;;5121846;28;20463;-67
2021/12/11 06:55:48;;;;;;;45.00;23.57;;;2.00;99.90;;;;;;5121809;28;20448;-67
2021/12/11 06:58:16;;;;;;;51.53;23.60;;;2.00;99.90;;;;;;5122159;28;20896;-67
2021/12/11 07:00:43;;;;;;;44.70;23.13;;;2.00;99.90;;;;;;5121676;28;20460;-67
2021/12/11 07:03:09;;;;;;;59.80;23.87;;;1.90;99.90;;;;;;5122366;28;20531;-67
2021/12/11 07:05:37;;;;;;;47.90;21.40;;;1.80;99.90;;;;;;5122174;28;20456;-67
2021/12/11 07:08:06;;;;;;;45.17;20.53;;;1.80;99.90;;;;;;5122380;28;20541;-68
2021/12/11 07:10:33;;;;;;;45.43;21.87;;;1.90;99.90;;;;;;5125808;28;20465;-68
2021/12/11 07:13:01;;;;;;;44.77;20.90;;;2.00;99.90;;;;;;5128512;28;20452;-68
2021/12/11 07:15:30;;;;;;;39.70;21.63;;;2.00;99.90;;;;;;5122748;28;20567;-67
2021/12/11 07:17:57;;;;;;;45.03;21.90;;;2.10;99.90;;;;;;5122094;28;20779;-67
2021/12/11 07:20:24;;;;;;;45.47;21.47;;;2.10;99.90;;;;;;5121994;28;20460;-67
2021/12/11 07:22:51;;;;;;;51.13;22.13;;;2.10;99.90;;;;;;5121659;27;20509;-68
2021/12/11 07:25:25;;;;;;;49.40;22.50;;;2.10;99.90;;;;;;5121538;27;20476;-66
2021/12/11 07:27:54;;;;;;;56.20;25.20;;;2.10;99.90;;;;;;5121813;28;20460;-68
2021/12/11 07:30:23;;;;;;;58.37;25.40;;;2.00;99.90;;;;;;5121476;28;20456;-67
2021/12/11 07:32:53;;;;;;;53.03;23.13;;;1.90;99.90;;;;;;5121485;28;20452;-66
2021/12/11 07:35:20;;;;;;;61.07;25.83;;;1.90;99.90;;;;;;5121645;28;20904;-67
2021/12/11 07:37:49;;;;;;;60.30;25.83;;;1.90;99.90;;;;;;5121412;28;20448;-67
2021/12/11 07:40:17;;;;;;;58.30;24.67;;;1.80;99.90;;;;;;5121089;28;20456;-66
2021/12/11 07:42:44;;;;;;;43.10;22.07;;;1.90;99.90;;;;;;5121107;28;20452;-67
2021/12/11 07:45:11;;;;;;;48.47;22.50;;;2.00;99.90;;;;;;5121012;28;20896;-67
2021/12/11 07:47:38;;;;;;;52.90;22.93;;;2.10;99.90;;;;;;5121007;28;20824;-67
2021/12/11 07:50:06;;;;;;;47.33;22.60;;;2.20;99.90;;;;;;5121478;28;20463;-67
2021/12/11 07:52:33;;;;;;;36.83;20.13;;;2.20;99.90;;;;;;5121163;28;20538;-67
2021/12/11 07:55:00;;;;;;;46.03;21.10;;;2.30;99.90;;;;;;5121467;28;20462;-66
2021/12/11 07:57:29;;;;;;;48.77;21.93;;;2.30;99.90;;;;;;5121071;28;20920;-66
2021/12/11 07:59:56;;;;;;;42.33;21.90;;;2.30;99.90;;;;;;5121379;28;20467;-68
2021/12/11 08:02:23;;;;;;;42.53;20.73;;;2.30;99.90;;;;;;5117969;27;20452;-67
2021/12/11 08:04:50;;;;;;;50.80;25.80;;;2.30;99.90;;;;;;5117685;28;20526;-67
2021/12/11 08:07:18;;;;;;;41.83;20.80;;;2.20;99.90;;;;;;5117782;28;20460;-67
2021/12/11 08:09:45;;;;;;;47.57;22.20;;;2.20;99.90;;;;;;5117655;28;20483;-67
2021/12/11 08:12:12;;;;;;;41.87;20.90;;;2.20;99.90;;;;;;5117498;28;20797;-67
2021/12/11 08:14:39;;;;;;;46.97;22.00;;;2.20;99.90;;;;;;5118251;28;20452;-67
2021/12/11 08:17:06;;;;;;;39.30;17.90;;;2.20;99.90;;;;;;5117595;28;20473;-68
2021/12/11 08:19:35;;;;;;;38.23;19.00;;;2.20;99.90;;;;;;5117235;28;20920;-68
2021/12/11 08:22:04;;;;;;;44.13;22.00;;;2.20;99.90;;;;;;5117735;28;20460;-68
2021/12/11 08:24:34;;;;;;;45.53;22.80;;;2.20;99.90;;;;;;5117955;28;20562;-67
2021/12/11 08:27:06;;;;;;;46.10;21.50;;;2.20;99.90;;;;;;5118018;28;20486;-68
2021/12/11 08:29:33;;;;;;;43.00;18.93;;;2.20;99.90;;;;;;5118391;28;20465;-68
2021/12/11 08:32:00;;;;;;;45.23;21.60;;;2.20;99.90;;;;;;5117973;28;20827;-68
2021/12/11 08:34:31;;;;;;;45.43;20.50;;;2.20;99.90;;;;;;5117609;28;20448;-68
2021/12/11 08:36:59;;;;;;;51.73;22.17;;;2.10;99.90;;;;;;5117288;28;20479;-67
2021/12/11 08:39:27;;;;;;;51.50;22.63;;;2.10;99.90;;;;;;5117925;28;20511;-67
2021/12/11 08:41:56;;;;;;;47.67;20.70;;;2.00;99.90;;;;;;5118039;28;20920;-67
2021/12/11 08:44:24;;;;;;;51.40;23.30;;;2.00;99.90;;;;;;5117614;28;20810;-67
2021/12/11 08:46:56;;;;;;;56.00;27.83;;;2.00;99.90;;;;;;5117365;28;20514;-67
2021/12/11 08:49:27;;;;;;;43.90;20.67;;;1.90;99.90;;;;;;5117117;28;20480;-67
2021/12/11 08:51:56;;;;;;;43.87;20.47;;;1.90;99.90;;;;;;5116869;28;20452;-67
2021/12/11 08:54:25;;;;;;;55.37;23.50;;;1.80;99.90;;;;;;5116823;28;20452;-67
2021/12/11 08:56:52;;;;;;;38.93;18.73;;;1.70;99.90;;;;;;5116592;28;20457;-67
2021/12/11 08:59:23;;;;;;;46.90;20.50;;;1.60;99.90;;;;;;5117073;28;20776;-67
2021/12/11 09:01:54;;;;;;;37.60;20.60;;;1.60;99.90;;;;;;5116737;28;20453;-67
2021/12/11 09:04:25;;;;;;;52.43;22.13;;;1.60;99.90;;;;;;5117044;28;20437;-68
2021/12/11 09:06:57;;;;;;;44.57;19.83;;;1.50;99.90;;;;;;5116541;28;20441;-67
2021/12/11 09:09:29;;;;;;;39.00;20.00;;;1.50;99.90;;;;;;5116701;28;20772;-68
2021/12/11 09:11:59;;;;;;;38.07;20.93;;;1.50;99.90;;;;;;5116455;28;20437;-68
2021/12/11 09:14:34;;;;;;;44.27;21.70;;;1.50;99.90;;;;;;5115595;28;20441;-67
2021/12/11 09:17:06;;;;;;;34.97;18.43;;;1.50;99.90;;;;;;5117164;28;20467;-68
2021/12/11 09:19:38;;;;;;;34.80;20.73;;;1.60;99.90;;;;;;5116868;28;20440;-67
2021/12/11 09:22:09;;;;;;;36.03;17.80;;;1.70;99.90;;;;;;5117128;28;20437;-68
2021/12/11 09:24:39;;;;;;;32.00;17.23;;;1.70;99.90;;;;;;5117562;28;20433;-67
2021/12/11 09:27:11;;;;;;;29.53;17.27;;;1.70;99.90;;;;;;5116151;28;20764;-67
2021/12/11 09:29:44;;;;;;;35.70;18.17;;;1.70;99.90;;;;;;5116262;28;20461;-68
2021/12/11 09:32:19;;;;;;;26.50;15.40;;;1.70;99.90;;;;;;5115980;28;20440;-68
2021/12/11 09:34:51;;;;;;;31.80;16.40;;;1.70;99.90;;;;;;5115972;28;20896;-67
2021/12/11 09:37:19;;;;;;;32.23;17.73;;;1.60;99.90;;;;;;5115686;27;20440;-67
2021/12/11 09:39:52;;;;;;;33.67;16.27;;;1.70;99.90;;;;;;5115949;28;20456;-67
2021/12/11 09:42:18;;;;;;;27.90;16.17;;;1.60;99.90;;;;;;5115967;28;20777;-67
2021/12/11 09:44:52;;;;;;;25.97;14.23;;;1.60;99.90;;;;;;5115475;28;20484;-67
2021/12/11 09:47:21;;;;;;;27.40;14.70;;;1.50;99.90;;;;;;5115639;28;20553;-66
2021/12/11 09:49:56;;;;;;;28.10;16.13;;;1.60;99.90;;;;;;5115514;28;20976;-66
2021/12/11 09:52:24;;;;;;;26.33;15.90;;;1.50;99.90;;;;;;5115816;28;20444;-67
2021/12/11 09:54:54;;;;;;;24.77;15.03;;;1.50;99.90;;;;;;5116128;28;20479;-68
2021/12/11 09:57:24;;;;;;;28.83;15.40;;;1.60;99.90;;;;;;5115474;28;20467;-67
2021/12/11 09:59:55;;;;;;;28.10;16.80;;;1.60;99.90;;;;;;5115920;28;20475;-68
2021/12/11 10:02:25;;;;;;;27.87;16.90;;;1.60;99.90;;;;;;5115490;28;20453;-68
2021/12/11 10:05:03;;;;;;;29.57;16.10;;;1.60;99.90;;;;;;5115126;28;20873;-67
2021/12/11 10:07:35;;;;;;;22.07;12.97;;;1.70;99.90;;;;;;5115791;28;20436;-67
2021/12/11 10:10:12;;;;;;;24.30;14.07;;;1.80;99.90;;;;;;5115267;28;20460;-68
2021/12/11 10:12:44;;;;;;;18.33;12.40;;;1.80;99.90;;;;;;5115234;28;20448;-68
2021/12/11 10:15:16;;;;;;;21.80;12.87;;;1.80;99.90;;;;;;5114788;28;20890;-68
2021/12/11 10:17:48;;;;;;;25.50;13.93;;;1.80;99.90;;;;;;5115399;28;20467;-68
2021/12/11 10:20:25;;;;;;;23.07;14.30;;;1.80;99.90;;;;;;5114941;28;20478;-67
2021/12/11 10:22:53;;;;;;;28.17;15.03;;;1.80;99.90;;;;;;5115044;28;20440;-68
2021/12/11 10:25:25;;;;;;;24.17;14.00;;;1.80;99.90;;;;;;5114955;28;20777;-68
2021/12/11 10:27:52;;;;;;;24.57;15.03;;;1.90;99.90;;;;;;5115324;28;20440;-68
2021/12/11 10:30:24;;;;;;;24.47;15.17;;;1.90;99.90;;;;;;5115538;28;20472;-67
2021/12/11 10:32:52;;;;;;;27.93;14.93;;;2.00;99.90;;;;;;5115209;28;20437;-68
2021/12/11 10:35:21;;;;;;;24.83;15.50;;;1.90;99.90;;;;;;5114660;28;20939;-68
2021/12/11 10:37:48;;;;;;;20.30;12.87;;;1.90;99.90;;;;;;5115334;28;20521;-67
2021/12/11 10:40:20;;;;;;;23.33;15.10;;;1.90;99.90;;;;;;5115059;28;20475;-67
2021/12/11 10:42:53;;;;;;;23.03;14.23;;;2.00;99.90;;;;;;5114571;28;20437;-67
2021/12/11 10:45:22;;;;;;;24.20;13.83;;;2.10;99.90;;;;;;5115175;28;20540;-67
2021/12/11 10:47:52;;;;;;;25.87;15.33;;;2.20;99.90;;;;;;5114425;28;20463;-67
2021/12/11 10:50:25;;;;;;;24.10;14.40;;;2.20;99.90;;;;;;5114898;28;20484;-67
2021/12/11 10:52:52;;;;;;;20.80;13.13;;;2.10;99.90;;;;;;5115045;28;20470;-67
2021/12/11 10:55:23;;;;;;;20.67;12.27;;;2.10;99.90;;;;;;5115055;28;20456;-67
2021/12/11 10:57:52;;;;;;;25.23;15.80;;;2.00;99.90;;;;;;5114716;28;20899;-68
2021/12/11 11:00:24;;;;;;;20.77;13.10;;;2.00;99.90;;;;;;5114939;28;20784;-69
2021/12/11 11:02:52;;;;;;;26.20;14.43;;;2.00;99.90;;;;;;5115010;28;20494;-67
2021/12/11 11:05:24;;;;;;;25.73;13.97;;;2.00;99.90;;;;;;5114653;28;20456;-67
2021/12/11 11:07:51;;;;;;;24.17;15.10;;;2.00;99.90;;;;;;5115079;28;20437;-67
2021/12/11 11:10:22;;;;;;;27.10;15.70;;;1.90;99.90;;;;;;5114552;28;20476;-68
2021/12/11 11:12:50;;;;;;;22.20;14.33;;;1.90;99.90;;;;;;5114356;28;20885;-67
2021/12/11 11:15:21;;;;;;;24.60;14.90;;;1.80;99.90;;;;;;5114768;28;20456;-67
2021/12/11 11:17:51;;;;;;;24.43;15.43;;;1.80;99.90;;;;;;5114849;28;20527;-67
2021/12/11 11:20:22;;;;;;;23.63;15.40;;;1.80;99.90;;;;;;5114939;28;20437;-67
2021/12/11 11:22:49;;;;;;;28.00;18.13;;;1.70;99.90;;;;;;5114945;28;20456;-67
2021/12/11 11:25:19;;;;;;;29.90;17.53;;;1.60;99.90;;;;;;5114376;28;20456;-68
2021/12/11 11:27:48;;;;;;;32.67;17.90;;;1.60;99.90;;;;;;5114586;28;20467;-68
2021/12/11 11:30:21;;;;;;;28.23;17.20;;;1.60;99.90;;;;;;5114191;28;20487;-67
2021/12/11 11:32:50;;;;;;;30.13;15.23;;;1.60;99.90;;;;;;5114471;28;20532;-68
2021/12/11 11:35:21;;;;;;;29.33;16.97;;;1.70;99.90;;;;;;5114577;28;20452;-68
2021/12/11 11:37:50;;;;;;;27.60;15.70;;;1.70;99.90;;;;;;5116912;28;20440;-67
2021/12/11 11:40:22;;;;;;;26.97;17.13;;;1.80;99.90;;;;;;5118299;28;20456;-67
2021/12/11 11:42:49;;;;;;;24.87;13.80;;;1.90;99.90;;;;;;5118245;28;20440;-67
2021/12/11 11:45:16;;;;;;;25.90;15.60;;;2.00;99.90;;;;;;5118563;28;20440;-67
2021/12/11 11:47:43;;;;;;;26.70;15.57;;;2.10;99.90;;;;;;5118187;28;20825;-67
2021/12/11 11:50:14;;;;;;;27.03;16.80;;;2.20;99.90;;;;;;5118089;28;20490;-67
2021/12/11 11:52:41;;;;;;;25.20;16.40;;;2.20;99.90;;;;;;5118104;28;20437;-67
2021/12/11 11:55:12;;;;;;;27.70;16.80;;;2.20;99.90;;;;;;5117946;28;20467;-68
2021/12/11 11:57:42;;;;;;;26.10;15.60;;;2.10;99.90;;;;;;5118067;28;20789;-67
2021/12/11 12:00:13;;;;;;;31.80;15.97;;;2.20;99.90;;;;;;5118337;27;20440;-67
2021/12/11 12:02:41;;;;;;;28.60;16.73;;;2.20;99.90;;;;;;5117847;28;20452;-67
2021/12/11 12:05:09;;;;;;;27.63;14.83;;;2.10;99.90;;;;;;5117546;28;20534;-67
2021/12/11 12:07:40;;;;;;;25.97;15.50;;;2.20;99.90;;;;;;5117777;28;20456;-67
2021/12/11 12:10:11;;;;;;;24.93;15.07;;;2.10;99.90;;;;;;5117688;28;20464;-66
2021/12/11 12:12:38;;;;;;;26.17;16.53;;;2.00;99.90;;;;;;5117668;28;20436;-68
2021/12/11 12:15:08;;;;;;;24.70;14.60;;;2.00;99.90;;;;;;5117743;28;20508;-67
2021/12/11 12:17:35;;;;;;;22.10;14.20;;;1.90;99.90;;;;;;5117156;28;20468;-68
2021/12/11 12:20:06;;;;;;;23.43;16.07;;;1.90;99.90;;;;;;5117924;28;20467;-68
2021/12/11 12:22:34;;;;;;;25.10;16.37;;;1.90;99.90;;;;;;5117859;28;20440;-68
2021/12/11 12:25:05;;;;;;;24.40;16.00;;;1.90;99.90;;;;;;5117097;28;20796;-66
2021/12/11 12:27:34;;;;;;;25.47;15.30;;;1.70;99.90;;;;;;5117087;28;20897;-68
2021/12/11 12:30:06;;;;;;;24.17;14.80;;;1.70;99.90;;;;;;5117369;28;20480;-68
2021/12/11 12:32:36;;;;;;;23.27;14.83;;;1.70;99.90;;;;;;5117742;28;20441;-68
2021/12/11 12:35:07;;;;;;;20.37;13.10;;;1.80;99.90;;;;;;5117306;28;20460;-68
2021/12/11 12:37:34;;;;;;;22.40;13.73;;;1.80;99.90;;;;;;5117620;28;20446;-68
2021/12/11 12:40:07;;;;;;;27.87;14.17;;;1.90;99.90;;;;;;5118776;28;20448;-67
2021/12/11 12:42:39;;;;;;;24.07;14.47;;;1.90;99.90;;;;;;5116989;28;20441;-66
2021/12/11 12:45:12;;;;;;;25.90;14.60;;;2.00;99.90;;;;;;5117749;28;20527;-67
2021/12/11 12:47:41;;;;;;;21.23;14.20;;;2.00;99.90;;;;;;5116913;28;20511;-67
2021/12/11 12:50:14;;;;;;;26.43;14.97;;;1.90;99.90;;;;;;5116970;28;20797;-67
2021/12/11 12:52:44;;;;;;;24.40;15.40;;;2.00;99.90;;;;;;5116858;28;20436;-67